This is the latest recevied weather packets stored in our database for station/object N5CSU. If no packets are shown the sender has not sent any weather packets the latest 10 day(s).
| Time | Temp. | Humidity | Pressure | Rain* | Wind** | Luminosity | Snow |
|---|---|---|---|---|---|---|---|
| 1778112465 | 15.56° C | 82% | 1014.6 hPa | 0 mm | - | 2 W/m² | - |
| 1778112161 | 15.56° C | 82% | 1014.6 hPa | 0 mm | - | 3 W/m² | - |
| 1778111858 | 15.56° C | 81% | 1014.6 hPa | 0 mm | - | 3 W/m² | - |
| 1778111552 | 16.11° C | 81% | 1014.3 hPa | 0 mm | - | 4 W/m² | - |
| 1778111250 | 16.11° C | 81% | 1014.4 hPa | 0 mm | - | 4 W/m² | - |
| 1778110947 | 16.11° C | 81% | 1014.5 hPa | 0 mm | - | 3 W/m² | - |
| 1778110639 | 16.11° C | 80% | 1014.5 hPa | 0 mm | - | 3 W/m² | - |
| 1778110335 | 16.11° C | 81% | 1014.4 hPa | 0 mm | - | 6 W/m² | - |
| 1778110031 | 16.11° C | 81% | 1014.4 hPa | 0 mm | - | 6 W/m² | - |
| 1778109726 | 16.11° C | 80% | 1014.5 hPa | 0 mm | - | 5 W/m² | - |
| 1778109424 | 16.11° C | 80% | 1014.1 hPa | 0 mm | - | 7 W/m² | - |
| 1778109122 | 16.11° C | 79% | 1014.1 hPa | 0 mm | - | 7 W/m² | - |
| 1778108818 | 16.11° C | 80% | 1014.3 hPa | 0 mm | - | 6 W/m² | - |
| 1778108515 | 16.11° C | 80% | 1014.1 hPa | 0 mm | - | 9 W/m² | - |
| 1778108212 | 16.11° C | 80% | 1014 hPa | 0 mm | - | 12 W/m² | - |
| 1778107909 | 16.11° C | 80% | 1014 hPa | 0 mm | - | 8 W/m² | - |
| 1778107605 | 16.11° C | 80% | 1014.1 hPa | 0 mm | - | 8 W/m² | - |
| 1778107302 | 16.67° C | 80% | 1013.9 hPa | 0 mm | - | 9 W/m² | - |
| 1778106998 | 16.11° C | 80% | 1013.9 hPa | 0 mm | - | 10 W/m² | - |
| 1778106694 | 16.11° C | 79% | 1014 hPa | 0 mm | - | 10 W/m² | - |
| 1778106391 | 16.11° C | 80% | 1013.9 hPa | 0 mm | - | 9 W/m² | - |
| 1778106087 | 16.11° C | 81% | 1014 hPa | 0 mm | - | 7 W/m² | - |
| 1778105785 | 16.11° C | 81% | 1013.9 hPa | 0 mm | - | 7 W/m² | - |
| 1778105483 | 16.11° C | 81% | 1014 hPa | 0 mm | - | 8 W/m² | - |
| 1778105180 | 16.11° C | 80% | 1013.7 hPa | 0 mm | - | 11 W/m² | - |
* Rain latest hour (hover to see other rain measurements)
** Current wind speed in m/s (hover to see current wind gust speed)